SBCTSBBI

Guest
Details From SBCT - Afonso Pena
To SBBI - Curitiba Bacacheri
Flight Number -
Tags Generated
Created
Modified
Stats Distance 8 nm / 15 km
Max Altitude 0 ft / 0 m
Waypoints 2
Social Downloads 2
Likes 0
Share VATSIM

Download

Looking for another format? Having issues loading an existing format? Contact us
Advertisement - Login to hide

Notes

Generated

Route

SBCT SBBI

ID Type Via Altitude Latitude Longitude Leg Dist Tot Dist Heading (true) Name
O SBCT APT - 0 ft / 0 m -25.52836˚ -49.18010˚ - 0 nm - -
O SBBI APT - 0 ft / 0 m -25.39926˚ -49.23469˚ 8 nm 8 nm 339° / 339° -

Altitude Profile

Advertisement - Login to hide

SBCT

Details ICAO SBCT (CWB)
Name Afonso Pena
Region Brazil
Timezone America/Sao_Paulo (UTC-3.0)
Stats Elevation 2,988 ft / 911 m (AMSL)
Location -25.528885° -49.173062°
Runways 2
Magnetic Variation 19.674° W

METAR

SBCT 221000Z 07003KT 9000 NSC 04/03 Q1021

Decode

TAF

TAF SBCT 220300Z 2206/2306 08005KT CAVOK TN06/2209Z TX20/2218Z PROB40 2208/2210 4000 BR FEW002 BECMG 2212/2214 31005KT BECMG 2222/2224 07005KT 9999 BKN008 RMK PDJ

Decode

Departure Runways

ID Width Length Bearing (true) Bearing (mag) Surface Threshold Offset Overrun Length
11 148 ft / 45 m 5,909 ft / 1,801 m 91.79° 111.46° Asphalt 0 ft / 0 m 0 ft / 0 m
15 148 ft / 45 m 7,290 ft / 2,222 m 134.76° 154.43° Asphalt 0 ft / 0 m 190 ft / 58 m
29 148 ft / 45 m 5,909 ft / 1,801 m 271.78° 291.45° Asphalt 0 ft / 0 m 0 ft / 0 m
33 148 ft / 45 m 7,290 ft / 2,222 m 314.75° 334.42° Asphalt 0 ft / 0 m 185 ft / 56 m

SBBI

Details ICAO SBBI (BFH)
Name Curitiba Bacacheri
Region Brazil
Timezone America/Sao_Paulo (UTC-3.0)
Stats Elevation 3,057 ft / 932 m (AMSL)
Location -25.405079° -49.232036°
Runways 1
Magnetic Variation 19.675° W

METAR

SBBI 221000Z 34003KT CAVOK 06/05 Q1021

Decode

TAF

TAF SBBI 220300Z 2206/2218 08005KT CAVOK TN06/2209Z TX17/2218Z PROB40 2208/2210 4000 BR FEW004 BECMG 2212/2214 31005KT RMK PDJ

Decode

Destination Runways

ID Width Length Bearing (true) Bearing (mag) Surface Threshold Offset Overrun Length
18 98 ft / 30 m 4,591 ft / 1,399 m 157.57° 177.25° Asphalt 527 ft / 161 m 0 ft / 0 m
36 98 ft / 30 m 4,591 ft / 1,399 m 337.56° 357.24° Asphalt 350 ft / 107 m 0 ft / 0 m